»·PEaware :: UAL613 KSFO-KLAX

UAL613 :: KSFO-KLAX

FLIGHT INFORMATION

Flight Status: Arrived
Operator:
United Airlines
More flights by this operator :: More flights under this callsign
Pilot: Kevin M. (7)
Aircraft: BOEING 737-800
(B738)
More flights by this aircraft type
Origin: KSFO San Francisco Intl
United States
Destination: KLAX Los Angeles Intl
United States
More flights between these airports :: More routes between these airports
Route: +SSTIK4 EBAYE AVE SADDE8
File this flight plan on PilotEdge
Remarks:
Altitude:
(Current/Filed)
35,000ft
Speed:
(Current/Filed)
470kts
Departed: 30-Nov-18 08:16 AM
Arrived: 30-Nov-18 09:04 AM
Distance/Time
Traveled:
293nm/0:48
Distance/Time
To Go:
Arrived

Flight Plot

Page will automatically refresh every two minutes.

Flight plan parsing failed; only flown route is shown


Map Options




Map Legend


Flown Route
Filed Route
Departure Airport
Arrival Airport
Navaid (VOR, NDB)
Fix

Horizontal Profiles

Position Reports

Time Latitude Longitude Heading Altitude Ground
Speed
30-Nov-18 07:58 37.618723 -122.385809 191 30ft 0kts
30-Nov-18 07:59 37.618723 -122.385809 191 30ft 0kts
30-Nov-18 08:00 37.618723 -122.385809 191 30ft 0kts
30-Nov-18 08:01 37.618723 -122.385809 191 30ft 0kts
30-Nov-18 08:02 37.618723 -122.385809 191 31ft 0kts
30-Nov-18 08:03 37.618723 -122.385809 191 31ft 0kts
30-Nov-18 08:04 37.618723 -122.385809 191 31ft 0kts
30-Nov-18 08:05 37.618723 -122.385809 191 31ft 0kts
30-Nov-18 08:06 37.618723 -122.385809 191 31ft 0kts
30-Nov-18 08:07 37.618723 -122.385809 191 31ft 0kts
30-Nov-18 08:08 37.618723 -122.385809 191 31ft 0kts
30-Nov-18 08:09 37.618723 -122.385809 191 31ft 0kts
30-Nov-18 08:10 37.618921 -122.385758 191 31ft 0kts
30-Nov-18 08:11 37.619184 -122.385993 95 31ft 1kts
30-Nov-18 08:12 37.619455 -122.385737 31 31ft 0kts
30-Nov-18 08:13 37.619455 -122.385737 31 31ft 0kts
30-Nov-18 08:14 37.620648 -122.384730 74 31ft 21kts
30-Nov-18 08:15 37.620468 -122.383868 119 31ft 25kts
30-Nov-18 08:16 37.619479 -122.381608 119 30ft 34kts
30-Nov-18 08:17 37.612505 -122.382366 205 30ft 35kts
30-Nov-18 08:18 37.608998 -122.383643 126 31ft 0kts
30-Nov-18 08:19 37.612031 -122.380206 27 30ft 69kts
30-Nov-18 08:20 37.651505 -122.357309 10 1620ft 196kts
30-Nov-18 08:21 37.700148 -122.380500 288 4196ft 221kts
30-Nov-18 08:22 37.662928 -122.429961 195 6365ft 277kts
30-Nov-18 08:23 37.585414 -122.450212 195 9046ft 294kts
30-Nov-18 08:24 37.501111 -122.460700 171 10578ft 346kts
30-Nov-18 08:25 37.410850 -122.396907 128 11633ft 407kts
30-Nov-18 08:26 37.349058 -122.275281 134 13738ft 429kts
30-Nov-18 08:27 37.263158 -122.167618 132 15877ft 451kts
30-Nov-18 08:28 37.180341 -122.055453 132 17715ft 472kts
30-Nov-18 08:29 37.089268 -121.932958 132 19560ft 493kts
30-Nov-18 08:30 36.994915 -121.806605 133 21223ft 514kts
30-Nov-18 08:31 36.896553 -121.675456 133 22858ft 533kts
30-Nov-18 08:32 36.794857 -121.540435 133 24323ft 550kts
30-Nov-18 08:33 36.689998 -121.401775 133 25771ft 565kts
30-Nov-18 08:34 36.584607 -121.262820 134 27056ft 579kts
30-Nov-18 08:35 36.473957 -121.117609 134 28354ft 591kts
30-Nov-18 08:36 36.364248 -120.965528 130 29724ft 600kts
30-Nov-18 08:37 36.254604 -120.808138 131 31186ft 605kts
30-Nov-18 08:38 36.144468 -120.651035 131 32573ft 609kts
30-Nov-18 08:39 36.033054 -120.492888 131 33877ft 613kts
30-Nov-18 08:40 35.923484 -120.338057 132 35069ft 612kts
30-Nov-18 08:41 35.815532 -120.192065 136 35053ft 607kts
30-Nov-18 08:42 35.698366 -120.043542 136 35057ft 607kts
30-Nov-18 08:43 35.571583 -119.911553 151 35067ft 598kts
30-Nov-18 08:44 35.434432 -119.794990 149 35071ft 601kts
30-Nov-18 08:45 35.298396 -119.678064 149 35064ft 601kts
30-Nov-18 08:46 35.162859 -119.562049 149 35057ft 594kts
30-Nov-18 08:47 35.027661 -119.446787 149 35055ft 593kts
30-Nov-18 08:48 34.898018 -119.336692 149 32873ft 573kts
30-Nov-18 08:49 34.772153 -119.229983 148 29486ft 567kts
30-Nov-18 08:50 34.645485 -119.123092 148 26494ft 542kts
30-Nov-18 08:51 34.525808 -119.022545 148 23783ft 516kts
30-Nov-18 08:52 34.412442 -118.927679 147 21186ft 491kts
30-Nov-18 08:53 34.295910 -118.857786 167 18691ft 455kts
30-Nov-18 08:54 34.180253 -118.816176 167 16509ft 428kts
30-Nov-18 08:55 34.068286 -118.770487 146 12777ft 421kts
30-Nov-18 08:56 34.028822 -118.652190 93 9238ft 383kts
30-Nov-18 08:57 34.017791 -118.537074 93 6955ft 325kts
30-Nov-18 08:58 34.019641 -118.446649 81 6591ft 263kts
30-Nov-18 08:59 34.024752 -118.369384 81 5698ft 243kts
30-Nov-18 09:00 34.030157 -118.298646 82 4824ft 238kts
30-Nov-18 09:01 34.036129 -118.219867 95 3956ft 240kts
30-Nov-18 09:02 33.986947 -118.174995 189 3042ft 242kts
30-Nov-18 09:03 33.951630 -118.227968 267 2681ft 225kts
30-Nov-18 09:04 33.947080 -118.290384 261 1817ft 165kts
30-Nov-18 09:05 33.941789 -118.341131 262 857ft 155kts
30-Nov-18 09:06 33.936431 -118.391873 263 108ft 143kts
30-Nov-18 09:07 33.936542 -118.408905 343 126ft 23kts
30-Nov-18 09:08 33.938811 -118.407830 81 126ft 17kts
30-Nov-18 09:09 33.940196 -118.400641 352 117ft 20kts
30-Nov-18 09:10 33.942010 -118.400267 81 116ft 0kts
30-Nov-18 09:11 33.942010 -118.400267 81 116ft 0kts
30-Nov-18 09:12 33.942010 -118.400267 81 116ft 0kts

Navigation Log

Ident Type
Flight plan parsing failed, navigation log unavailable